Time;durP1;ratioP1;P1;durP2;ratioP2;P2;SDS_P1;SDS_P2;PMS_P1;PMS_P2;Temp;Humidity;BMP_temperature;BMP_pressure;BME280_temperature;BME280_humidity;BME280_pressure;Samples;Min_cycle;Max_cycle;Signal;HPM_P1;HPM_P2
2023/03/24 00:00:09;;;;;;;7.03;4.40;;;11.30;99.90;;;;;;5060848;28;20132;-46
2023/03/24 00:02:40;;;;;;;13.85;4.80;;;11.30;99.90;;;;;;5071351;28;20098;-46
2023/03/24 00:05:13;;;;;;;8.23;4.00;;;11.30;99.90;;;;;;5070046;28;20072;-47
2023/03/24 00:07:41;;;;;;;9.38;3.35;;;11.20;99.90;;;;;;5069170;28;20068;-47
2023/03/24 00:10:13;;;;;;;8.98;3.42;;;11.20;99.90;;;;;;5064295;28;20102;-47
2023/03/24 00:12:41;;;;;;;7.35;3.80;;;11.00;99.90;;;;;;5071126;28;20374;-47
2023/03/24 00:15:12;;;;;;;7.07;4.10;;;10.90;99.90;;;;;;5071289;28;20119;-47
2023/03/24 00:17:39;;;;;;;8.15;4.65;;;10.80;99.90;;;;;;5065483;28;21154;-47
2023/03/24 00:20:13;;;;;;;;;;;10.80;99.90;;;;;;5069723;28;20032;-47
2023/03/24 00:22:41;;;;;;;11.10;6.05;;;10.80;99.90;;;;;;5070932;28;19921;-46
2023/03/24 00:25:10;;;;;;;9.45;5.53;;;10.90;99.90;;;;;;5071401;28;20037;-47
2023/03/24 00:27:37;;;;;;;14.68;6.18;;;10.90;99.90;;;;;;5069689;28;20058;-47
2023/03/24 00:30:05;;;;;;;;;;;10.90;99.90;;;;;;5070987;28;20448;-47
2023/03/24 00:32:32;;;;;;;13.18;6.25;;;10.90;99.90;;;;;;5073032;28;19920;-48
2023/03/24 00:34:59;;;;;;;7.57;5.50;;;10.90;99.90;;;;;;5064954;28;20091;-47
2023/03/24 00:37:26;;;;;;;11.25;5.00;;;10.90;99.90;;;;;;5069911;28;20439;-47
2023/03/24 00:39:53;;;;;;;13.15;5.75;;;10.90;99.90;;;;;;5057600;28;20041;-47
2023/03/24 00:42:21;;;;;;;11.23;5.75;;;10.80;99.90;;;;;;5070877;28;20099;-47
2023/03/24 00:44:47;;;;;;;11.68;5.78;;;10.80;99.90;;;;;;5070983;28;20040;-47
2023/03/24 00:47:16;;;;;;;14.70;5.80;;;10.80;99.90;;;;;;5058527;28;20044;-47
2023/03/24 00:49:46;;;;;;;11.40;6.05;;;10.80;99.90;;;;;;5074338;28;20032;-47
2023/03/24 00:52:19;;;;;;;11.30;5.55;;;10.80;99.90;;;;;;5075081;28;20041;-49
2023/03/24 00:54:48;;;;;;;8.82;5.85;;;10.80;99.90;;;;;;5084273;28;20065;-48
2023/03/24 00:57:22;;;;;;;12.48;5.80;;;10.80;99.90;;;;;;5056475;28;20075;-48
2023/03/24 00:59:50;;;;;;;9.65;5.82;;;10.80;99.90;;;;;;5062311;28;20036;-47
2023/03/24 01:02:23;;;;;;;7.72;5.00;;;10.80;99.90;;;;;;5074802;28;20044;-49
2023/03/24 01:04:56;;;;;;;12.18;5.30;;;10.80;99.90;;;;;;5056054;28;20048;-49
2023/03/24 01:07:24;;;;;;;9.30;5.55;;;10.80;99.90;;;;;;5084184;28;20036;-47
2023/03/24 01:09:56;;;;;;;8.43;5.07;;;10.80;99.90;;;;;;5072452;28;20059;-48
2023/03/24 01:12:25;;;;;;;8.65;5.68;;;10.80;99.90;;;;;;5056656;28;20113;-48
2023/03/24 01:14:52;;;;;;;8.98;5.65;;;10.80;99.90;;;;;;5074282;28;20076;-48
2023/03/24 01:17:24;;;;;;;;;;;10.70;99.90;;;;;;5074546;28;20045;-47
2023/03/24 01:19:52;;;;;;;7.60;5.38;;;10.70;99.90;;;;;;5066631;28;19921;-47
2023/03/24 01:22:20;;;;;;;9.18;5.05;;;10.60;99.90;;;;;;5074354;28;20048;-49
2023/03/24 01:24:48;;;;;;;10.10;5.53;;;10.60;99.90;;;;;;5073272;28;20040;-48
2023/03/24 01:27:14;;;;;;;9.88;5.45;;;10.50;99.90;;;;;;5064989;28;20045;-49
2023/03/24 01:29:41;;;;;;;13.40;5.57;;;10.50;99.90;;;;;;5073795;28;20459;-48
2023/03/24 01:32:08;;;;;;;9.60;5.75;;;10.50;99.90;;;;;;5071924;28;20052;-47
2023/03/24 01:34:35;;;;;;;10.88;5.85;;;10.40;99.90;;;;;;5074137;28;20485;-48
2023/03/24 01:37:02;;;;;;;10.45;6.22;;;10.40;99.90;;;;;;5061709;28;20064;-47
2023/03/24 01:39:29;;;;;;;;;;;10.40;99.90;;;;;;5057911;28;20090;-46
2023/03/24 01:41:56;;;;;;;8.43;5.07;;;10.40;99.90;;;;;;5072547;28;19926;-49
2023/03/24 01:44:35;;;;;;;9.88;5.55;;;10.40;99.90;;;;;;5094491;28;20412;-47
2023/03/24 01:47:06;;;;;;;11.30;6.13;;;10.40;99.90;;;;;;5073724;28;20044;-48
2023/03/24 01:49:41;;;;;;;12.05;5.75;;;10.40;99.90;;;;;;5073071;28;20094;-49
2023/03/24 01:52:18;;;;;;;9.48;5.82;;;10.40;99.90;;;;;;5073979;28;20044;-49
2023/03/24 01:55:12;;;;;;;14.48;5.75;;;10.40;99.90;;;;;;5070366;28;20598;-49
2023/03/24 01:57:45;;;;;;;11.55;6.38;;;10.30;99.90;;;;;;5068761;28;20440;-50
2023/03/24 02:00:14;;;;;;;13.63;5.65;;;10.30;99.90;;;;;;5079074;22;20090;-54
2023/03/24 02:03:17;;;;;;;7.40;5.40;;;10.20;99.90;;;;;;5097559;28;20067;-52
2023/03/24 02:05:52;;;;;;;9.18;5.55;;;10.20;99.90;;;;;;5074276;28;20064;-50
2023/03/24 02:08:31;;;;;;;8.88;5.30;;;10.10;99.90;;;;;;5075177;28;20040;-51
2023/03/24 02:11:00;;;;;;;12.15;5.63;;;10.10;99.90;;;;;;5067667;28;20041;-52
2023/03/24 02:13:35;;;;;;;12.85;5.43;;;10.10;99.90;;;;;;5076330;28;20515;-50
2023/03/24 02:16:17;;;;;;;8.48;5.65;;;10.10;99.90;;;;;;5070994;28;20501;-51
2023/03/24 02:18:53;;;;;;;8.18;5.05;;;10.00;99.90;;;;;;5072895;28;20139;-51
2023/03/24 02:21:48;;;;;;;8.57;5.10;;;10.00;99.90;;;;;;5094057;28;20488;-51
2023/03/24 02:24:33;;;;;;;9.60;5.60;;;10.00;99.90;;;;;;5095586;28;20032;-50
2023/03/24 02:27:18;;;;;;;9.55;6.00;;;10.00;99.90;;;;;;5091820;28;20055;-50
2023/03/24 02:30:21;;;;;;;12.23;5.82;;;10.10;99.90;;;;;;5093359;28;20040;-50
2023/03/24 02:33:03;;;;;;;12.73;5.40;;;10.20;99.90;;;;;;5094911;28;20075;-52
2023/03/24 02:35:54;;;;;;;7.93;4.78;;;10.10;99.90;;;;;;5108236;28;20046;-51
2023/03/24 02:38:44;;;;;;;13.32;5.18;;;10.00;99.90;;;;;;5075255;28;20500;-54
2023/03/24 02:41:27;;;;;;;10.50;5.47;;;10.00;99.90;;;;;;5095050;28;20454;-52
2023/03/24 02:44:24;;;;;;;9.18;5.28;;;10.00;99.90;;;;;;5110211;28;20048;-50
2023/03/24 02:46:59;;;;;;;9.68;4.90;;;10.00;99.90;;;;;;5093225;28;20094;-51
2023/03/24 02:49:36;;;;;;;9.27;5.72;;;9.90;99.90;;;;;;5094596;28;20048;-53
2023/03/24 02:52:31;;;;;;;10.63;4.95;;;10.00;99.90;;;;;;5095221;28;20138;-53
2023/03/24 02:55:04;;;;;;;7.30;4.55;;;10.00;99.90;;;;;;5110998;28;20035;-50
2023/03/24 02:57:50;;;;;;;7.35;5.05;;;10.00;99.90;;;;;;5111938;28;20042;-52
2023/03/24 03:00:50;;;;;;;6.78;4.28;;;10.00;99.90;;;;;;5111843;28;20564;-53
2023/03/24 03:03:33;;;;;;;7.10;4.15;;;10.00;99.90;;;;;;5113356;28;20507;-50
2023/03/24 03:06:12;;;;;;;10.73;4.65;;;10.10;99.90;;;;;;5085062;28;20423;-52
2023/03/24 03:08:40;;;;;;;6.55;4.07;;;10.10;99.90;;;;;;5093602;28;20035;-51
2023/03/24 03:11:12;;;;;;;5.80;3.85;;;10.00;99.90;;;;;;5093616;28;20449;-54
2023/03/24 03:13:44;;;;;;;7.55;3.58;;;10.10;99.90;;;;;;5112991;28;20101;-51
2023/03/24 03:16:24;;;;;;;7.55;4.00;;;10.20;99.90;;;;;;5068852;28;20043;-51
2023/03/24 03:18:56;;;;;;;9.02;5.13;;;10.20;99.90;;;;;;5110949;28;20044;-53
2023/03/24 03:21:28;;;;;;;7.40;4.57;;;10.20;99.90;;;;;;5083307;28;20466;-52
2023/03/24 03:24:01;;;;;;;8.82;4.88;;;10.10;99.90;;;;;;5079457;28;20048;-51
2023/03/24 03:26:31;;;;;;;9.98;4.95;;;10.20;99.90;;;;;;5112278;28;20509;-52
2023/03/24 03:29:04;;;;;;;9.57;5.07;;;10.20;99.90;;;;;;5111715;28;20126;-52
2023/03/24 03:31:41;;;;;;;9.10;5.35;;;10.20;99.90;;;;;;5108317;28;20086;-51
2023/03/24 03:34:30;;;;;;;12.13;5.20;;;10.20;99.90;;;;;;5093976;28;20092;-52
2023/03/24 03:37:21;;;;;;;9.82;5.25;;;10.20;99.90;;;;;;5112471;28;20040;-51
2023/03/24 03:39:56;;;;;;;9.52;5.85;;;10.20;99.90;;;;;;5083931;28;20101;-51
2023/03/24 03:42:23;;;;;;;9.50;5.20;;;10.20;99.90;;;;;;5083284;28;20140;-52
2023/03/24 03:44:50;;;;;;;;;;;10.10;99.90;;;;;;5093434;28;20048;-51
2023/03/24 03:47:20;;;;;;;8.10;5.03;;;10.10;99.90;;;;;;5094018;28;20277;-52
2023/03/24 03:49:48;;;;;;;9.30;4.82;;;10.10;99.90;;;;;;5090252;28;20044;-50
2023/03/24 03:52:15;;;;;;;10.10;5.55;;;10.10;99.90;;;;;;5111872;28;20500;-53
2023/03/24 03:54:43;;;;;;;9.20;5.60;;;10.00;99.90;;;;;;5093915;28;20460;-51
2023/03/24 03:57:11;;;;;;;;;;;10.10;99.90;;;;;;5093742;28;20040;-51
2023/03/24 04:00:10;;;;;;;11.55;5.75;;;10.00;99.90;;;;;;5090047;28;19920;-51
2023/03/24 04:02:44;;;;;;;12.77;5.38;;;10.10;99.90;;;;;;5110840;28;20457;-50
2023/03/24 04:05:28;;;;;;;7.85;5.25;;;10.10;99.90;;;;;;5089075;28;20086;-51
2023/03/24 04:08:36;;;;;;;11.18;5.65;;;10.10;99.90;;;;;;5091307;28;20517;-51
2023/03/24 04:11:45;;;;;;;12.32;5.80;;;10.10;99.90;;;;;;5092293;28;20043;-51
2023/03/24 04:14:48;;;;;;;8.90;5.35;;;10.10;99.90;;;;;;5111404;28;20100;-52
2023/03/24 04:17:48;;;;;;;10.68;5.35;;;10.10;99.90;;;;;;5104747;28;20048;-52
2023/03/24 04:20:45;;;;;;;14.02;5.97;;;10.00;99.90;;;;;;5090617;28;20036;-55
2023/03/24 04:23:25;;;;;;;15.88;6.00;;;10.00;99.90;;;;;;5078475;28;20047;-51
2023/03/24 04:26:09;;;;;;;9.05;5.40;;;10.00;99.90;;;;;;5082577;28;20440;-53
2023/03/24 04:29:01;;;;;;;11.07;6.38;;;9.90;99.90;;;;;;5075640;28;20040;-51
2023/03/24 04:31:41;;;;;;;9.90;5.72;;;9.90;99.90;;;;;;5079184;28;20098;-53
2023/03/24 04:34:24;;;;;;;10.20;5.18;;;9.90;99.90;;;;;;5069707;28;20459;-50
2023/03/24 04:37:15;;;;;;;10.88;5.97;;;9.90;99.90;;;;;;5084064;28;20115;-52
2023/03/24 04:40:00;;;;;;;12.70;5.45;;;9.90;99.90;;;;;;5088118;28;20079;-51
2023/03/24 04:42:38;;;;;;;8.10;5.78;;;9.90;99.90;;;;;;5083515;28;20052;-52
2023/03/24 04:45:06;;;;;;;9.23;5.75;;;9.80;99.90;;;;;;5076949;28;20467;-51
2023/03/24 04:47:59;;;;;;;10.35;5.68;;;9.80;99.90;;;;;;5088278;28;20627;-51
2023/03/24 04:50:59;;;;;;;8.65;5.22;;;9.80;99.90;;;;;;5093995;28;20519;-51
2023/03/24 04:53:32;;;;;;;10.30;5.53;;;9.70;99.90;;;;;;5085716;28;20139;-51
2023/03/24 04:56:02;;;;;;;11.20;7.28;;;9.70;99.90;;;;;;5081700;28;20051;-54
2023/03/24 04:58:55;;;;;;;14.82;8.10;;;9.70;99.90;;;;;;5078308;28;20099;-50
2023/03/24 05:01:22;;;;;;;13.23;7.75;;;9.60;99.90;;;;;;5082994;28;20150;-51
2023/03/24 05:04:09;;;;;;;16.73;7.32;;;9.60;99.90;;;;;;5111073;28;20062;-51
2023/03/24 05:06:36;;;;;;;8.27;5.88;;;9.60;99.90;;;;;;5076323;28;20165;-50
2023/03/24 05:09:03;;;;;;;10.63;5.65;;;9.60;99.90;;;;;;5091133;28;20054;-52
2023/03/24 05:11:30;;;;;;;14.13;6.20;;;9.60;99.90;;;;;;5092199;28;20046;-52
2023/03/24 05:14:03;;;;;;;9.80;6.28;;;9.60;99.90;;;;;;5092905;28;20527;-52
2023/03/24 05:16:29;;;;;;;11.02;6.45;;;9.50;99.90;;;;;;5089468;28;20040;-52
2023/03/24 05:18:58;;;;;;;9.43;5.18;;;9.50;99.90;;;;;;5080947;28;20051;-51
2023/03/24 05:21:28;;;;;;;14.82;6.85;;;9.60;99.90;;;;;;5085912;28;20047;-51
2023/03/24 05:23:59;;;;;;;11.02;6.65;;;9.60;99.90;;;;;;5096306;28;20062;-52
2023/03/24 05:26:25;;;;;;;10.70;6.60;;;9.70;99.90;;;;;;5079399;28;20036;-51
2023/03/24 05:29:05;;;;;;;10.18;6.03;;;9.80;99.90;;;;;;5074919;28;20040;-51
2023/03/24 05:31:33;;;;;;;10.52;6.38;;;9.90;99.90;;;;;;5073147;28;20666;-52
2023/03/24 05:34:13;;;;;;;12.93;6.43;;;10.00;99.90;;;;;;5092673;28;20047;-54
2023/03/24 05:36:59;;;;;;;11.77;6.72;;;10.00;99.90;;;;;;5095786;28;20058;-52
2023/03/24 05:39:27;;;;;;;11.27;6.88;;;10.00;99.90;;;;;;5113497;28;20036;-52
2023/03/24 05:42:07;;;;;;;10.98;6.90;;;10.00;99.90;;;;;;5085820;28;20052;-51
2023/03/24 05:44:34;;;;;;;11.13;7.57;;;10.10;99.90;;;;;;5076347;28;20044;-52
2023/03/24 05:47:08;;;;;;;10.40;6.55;;;10.10;99.90;;;;;;5082412;28;20105;-51
2023/03/24 05:49:35;;;;;;;9.73;6.38;;;10.20;99.90;;;;;;5079114;28;20042;-52
2023/03/24 05:52:02;;;;;;;11.55;6.60;;;10.20;99.90;;;;;;5085554;28;20051;-52
2023/03/24 05:54:29;;;;;;;14.70;7.88;;;10.20;99.90;;;;;;5096115;28;20040;-52
2023/03/24 05:57:07;;;;;;;9.27;4.93;;;10.20;99.90;;;;;;5083132;28;20139;-52
2023/03/24 05:59:46;;;;;;;8.50;4.13;;;10.20;99.90;;;;;;5089413;28;20101;-52
2023/03/24 06:02:19;;;;;;;6.00;3.63;;;10.20;99.90;;;;;;5082427;28;20426;-52
2023/03/24 06:05:00;;;;;;;8.93;3.40;;;10.10;99.90;;;;;;5085598;28;20074;-51
2023/03/24 06:07:29;;;;;;;11.95;3.88;;;10.00;99.90;;;;;;5084723;28;20422;-52
2023/03/24 06:10:01;;;;;;;6.60;3.60;;;9.90;99.90;;;;;;5083895;28;20071;-52
2023/03/24 06:12:35;;;;;;;9.88;4.50;;;9.90;99.90;;;;;;5081196;28;20411;-51
2023/03/24 06:15:03;;;;;;;9.93;4.88;;;9.90;99.90;;;;;;5069492;28;20051;-51
2023/03/24 06:17:31;;;;;;;8.40;4.57;;;10.00;99.90;;;;;;5086293;28;20059;-53
2023/03/24 06:20:09;;;;;;;10.48;4.55;;;10.00;99.90;;;;;;5087002;28;20043;-53
2023/03/24 06:22:49;;;;;;;7.65;4.65;;;10.10;99.90;;;;;;5095587;28;20122;-51
2023/03/24 06:25:25;;;;;;;9.27;4.90;;;10.20;99.90;;;;;;5095521;28;20044;-55
2023/03/24 06:28:11;;;;;;;8.82;4.68;;;10.20;99.90;;;;;;5093577;28;20145;-52
2023/03/24 06:30:39;;;;;;;12.77;5.80;;;10.20;99.90;;;;;;5077828;28;20044;-55
2023/03/24 06:33:06;;;;;;;12.88;5.90;;;10.30;99.90;;;;;;5079906;27;20051;-53
2023/03/24 06:35:34;;;;;;;10.38;6.18;;;10.30;99.90;;;;;;5084319;28;20040;-52
2023/03/24 06:38:09;;;;;;;15.90;6.10;;;10.30;99.90;;;;;;5066150;28;20138;-55
2023/03/24 06:40:36;;;;;;;10.75;6.63;;;10.40;99.90;;;;;;5078280;28;20491;-53
2023/03/24 06:43:04;;;;;;;11.23;6.45;;;10.50;99.90;;;;;;5083653;28;20100;-52
2023/03/24 06:45:35;;;;;;;11.85;6.97;;;10.60;99.90;;;;;;5083656;28;20597;-53
2023/03/24 06:48:03;;;;;;;14.07;6.43;;;10.70;99.90;;;;;;5076731;28;20050;-54
2023/03/24 06:50:33;;;;;;;9.27;5.72;;;10.70;99.90;;;;;;5083525;28;20050;-52
2023/03/24 06:53:05;;;;;;;10.05;5.80;;;10.80;99.90;;;;;;5084579;28;20068;-52
2023/03/24 06:55:35;;;;;;;15.35;6.90;;;10.90;99.90;;;;;;5083285;28;20495;-53
2023/03/24 06:58:03;;;;;;;14.43;5.93;;;10.90;99.90;;;;;;5076248;28;20048;-51
2023/03/24 07:00:40;;;;;;;12.23;5.88;;;10.90;99.90;;;;;;5083027;28;20044;-52
2023/03/24 07:03:22;;;;;;;12.60;6.15;;;11.00;99.90;;;;;;5069250;28;20507;-54
2023/03/24 07:06:09;;;;;;;14.32;6.43;;;11.10;99.90;;;;;;5110000;28;20085;-52
2023/03/24 07:08:36;;;;;;;11.07;6.07;;;11.20;99.90;;;;;;5092428;28;20044;-51
2023/03/24 07:11:08;;;;;;;12.98;6.38;;;11.20;99.90;;;;;;5092400;28;20039;-52
2023/03/24 07:13:37;;;;;;;12.48;6.40;;;11.30;99.90;;;;;;5093588;28;20040;-55
2023/03/24 07:16:05;;;;;;;12.48;6.80;;;11.30;99.90;;;;;;5094258;28;20036;-51
2023/03/24 07:18:34;;;;;;;17.10;7.22;;;11.40;99.90;;;;;;5086245;28;20082;-52
2023/03/24 07:21:04;;;;;;;10.27;6.68;;;11.40;99.90;;;;;;5094009;28;20408;-51
2023/03/24 07:23:32;;;;;;;13.00;6.47;;;11.50;99.90;;;;;;5093538;28;20419;-51
2023/03/24 07:26:19;;;;;;;11.18;6.40;;;11.50;99.90;;;;;;5110410;28;20145;-52
2023/03/24 07:28:55;;;;;;;12.35;6.75;;;11.40;99.90;;;;;;5090441;28;20163;-52
2023/03/24 07:31:57;;;;;;;12.15;6.47;;;11.40;99.90;;;;;;5085590;28;20047;-51
2023/03/24 07:34:25;;;;;;;11.55;6.55;;;11.30;99.90;;;;;;5103583;28;20268;-53
2023/03/24 07:36:52;;;;;;;11.20;6.88;;;11.30;99.90;;;;;;5076650;28;20356;-51
2023/03/24 07:39:19;;;;;;;11.68;6.53;;;11.30;99.90;;;;;;5093865;28;20043;-51
2023/03/24 07:41:47;;;;;;;14.25;6.95;;;11.40;99.90;;;;;;5093722;28;20075;-51
2023/03/24 07:44:24;;;;;;;16.50;6.93;;;11.50;99.90;;;;;;5088400;28;20515;-51
2023/03/24 07:46:52;;;;;;;13.50;7.63;;;11.50;99.90;;;;;;5108642;28;20036;-50
2023/03/24 07:49:19;;;;;;;10.15;6.10;;;11.60;99.90;;;;;;5092834;28;20047;-51
2023/03/24 07:51:57;;;;;;;15.65;6.25;;;11.60;99.90;;;;;;5093129;28;20081;-52
2023/03/24 07:54:33;;;;;;;13.65;6.55;;;11.80;99.90;;;;;;5109600;28;20027;-51
2023/03/24 07:57:00;;;;;;;12.13;6.32;;;11.90;99.90;;;;;;5093895;28;20098;-52
2023/03/24 07:59:27;;;;;;;9.95;6.00;;;11.90;99.90;;;;;;5092921;28;20044;-51
2023/03/24 08:02:28;;;;;;;9.10;5.70;;;12.10;99.90;;;;;;5064209;22;20049;-51
2023/03/24 08:05:19;;;;;;;8.65;5.95;;;12.00;99.90;;;;;;5064993;28;20048;-49
2023/03/24 08:08:05;;;;;;;13.00;6.50;;;12.20;99.90;;;;;;5071237;28;20412;-51
2023/03/24 08:10:32;;;;;;;11.95;6.18;;;12.30;99.90;;;;;;5069120;28;20049;-47
2023/03/24 08:12:59;;;;;;;;;;;12.40;99.90;;;;;;5090052;28;20044;-50
2023/03/24 08:15:26;;;;;;;11.05;6.28;;;12.40;99.90;;;;;;5091558;28;19920;-50
2023/03/24 08:17:55;;;;;;;14.00;6.75;;;12.40;99.90;;;;;;5089500;28;20044;-49
2023/03/24 08:20:23;;;;;;;11.23;6.60;;;12.40;99.90;;;;;;5090777;28;20040;-49
2023/03/24 08:22:53;;;;;;;14.98;7.40;;;12.40;99.90;;;;;;5090817;28;20102;-49
2023/03/24 08:25:22;;;;;;;12.10;7.22;;;12.40;99.90;;;;;;5090834;28;20054;-46
2023/03/24 08:27:49;;;;;;;17.73;7.75;;;12.40;99.90;;;;;;5088698;28;20101;-49
2023/03/24 08:30:19;;;;;;;13.27;7.32;;;12.30;99.90;;;;;;5090685;28;20458;-49
2023/03/24 08:32:48;;;;;;;11.02;7.38;;;12.30;99.90;;;;;;5090967;28;20048;-50
2023/03/24 08:35:17;;;;;;;15.25;8.18;;;12.40;99.90;;;;;;5091294;28;20469;-46
2023/03/24 08:37:44;;;;;;;14.27;8.05;;;12.50;99.90;;;;;;5089026;28;20484;-46
2023/03/24 08:40:17;;;;;;;10.75;7.22;;;12.50;99.90;;;;;;5070845;28;20717;-48
2023/03/24 08:42:48;;;;;;;14.63;7.28;;;12.50;99.90;;;;;;5091091;28;20036;-48
2023/03/24 08:45:19;;;;;;;16.13;7.30;;;12.60;99.90;;;;;;5091278;28;20048;-46
2023/03/24 08:47:48;;;;;;;11.23;7.45;;;12.90;99.90;;;;;;5071230;28;20048;-47
2023/03/24 08:50:15;;;;;;;10.43;6.50;;;13.20;99.90;;;;;;5089872;28;20047;-49
2023/03/24 08:52:42;;;;;;;11.65;7.13;;;13.30;99.90;;;;;;5090560;28;20055;-47
2023/03/24 08:55:11;;;;;;;10.90;6.97;;;13.40;99.90;;;;;;5090964;28;20036;-47
2023/03/24 08:57:37;;;;;;;13.10;7.18;;;13.40;99.90;;;;;;5088941;28;20396;-46
2023/03/24 09:00:14;;;;;;;15.23;7.25;;;13.40;99.90;;;;;;5090046;28;20040;-50
2023/03/24 09:02:46;;;;;;;10.63;6.97;;;13.40;99.90;;;;;;5090856;28;20124;-47
2023/03/24 09:05:14;;;;;;;14.13;7.18;;;13.30;99.90;;;;;;5090207;28;20127;-46
2023/03/24 09:07:41;;;;;;;13.80;7.78;;;13.30;99.90;;;;;;5092743;28;20101;-49
2023/03/24 09:10:09;;;;;;;11.77;7.47;;;13.30;99.90;;;;;;5093474;28;20076;-46
2023/03/24 09:12:37;;;;;;;15.65;7.78;;;13.20;99.90;;;;;;5094385;28;20044;-47
2023/03/24 09:15:07;;;;;;;14.45;7.68;;;13.20;99.90;;;;;;5094574;28;20480;-48
2023/03/24 09:17:34;;;;;;;12.13;7.35;;;13.10;99.90;;;;;;5094685;28;20556;-50
2023/03/24 09:20:07;;;;;;;14.88;7.28;;;13.10;99.90;;;;;;5092801;28;20411;-46
2023/03/24 09:22:39;;;;;;;13.25;6.95;;;13.20;99.90;;;;;;5094470;28;20044;-47
2023/03/24 09:25:16;;;;;;;16.42;7.10;;;13.20;99.90;;;;;;5094664;28;20113;-49
2023/03/24 09:27:43;;;;;;;12.52;7.45;;;13.30;99.90;;;;;;5093772;28;20097;-46
2023/03/24 09:30:11;;;;;;;15.50;7.93;;;13.30;99.90;;;;;;5094267;28;20289;-47
2023/03/24 09:32:38;;;;;;;10.65;7.28;;;13.30;99.90;;;;;;5094488;28;20172;-50
2023/03/24 09:35:07;;;;;;;13.85;7.72;;;13.30;99.90;;;;;;5092881;28;20504;-46
2023/03/24 09:37:35;;;;;;;12.60;7.00;;;13.40;99.90;;;;;;5094223;28;20036;-47
2023/03/24 09:40:03;;;;;;;10.73;7.22;;;13.60;99.90;;;;;;5093607;28;20101;-47
2023/03/24 09:42:37;;;;;;;12.40;7.53;;;13.80;99.90;;;;;;5093426;28;20074;-47
2023/03/24 09:45:14;;;;;;;12.90;7.55;;;13.90;99.90;;;;;;5092650;28;20511;-49
2023/03/24 09:47:45;;;;;;;14.10;8.07;;;14.30;99.90;;;;;;5094529;28;20496;-47
2023/03/24 09:50:25;;;;;;;14.95;7.63;;;14.70;99.90;;;;;;5091842;28;20040;-47
2023/03/24 09:53:05;;;;;;;16.23;6.70;;;15.00;99.90;;;;;;5092366;28;20048;-47
2023/03/24 09:55:37;;;;;;;12.32;7.13;;;15.40;99.90;;;;;;5093307;28;20094;-46
2023/03/24 09:58:09;;;;;;;13.02;6.93;;;15.50;99.90;;;;;;5091709;28;20043;-46
2023/03/24 10:00:36;;;;;;;14.15;6.88;;;15.50;99.90;;;;;;5093216;28;20048;-47
2023/03/24 10:03:21;;;;;;;11.73;7.20;;;15.60;99.90;;;;;;5093631;28;20040;-51
2023/03/24 10:06:08;;;;;;;11.10;7.13;;;15.60;99.90;;;;;;5092601;28;20140;-46
2023/03/24 10:08:39;;;;;;;12.20;7.22;;;15.80;99.90;;;;;;5087740;28;20075;-47
2023/03/24 10:11:31;;;;;;;13.73;8.13;;;15.90;99.90;;;;;;5091847;28;20040;-47
2023/03/24 10:14:13;;;;;;;15.05;7.50;;;16.00;99.90;;;;;;5081884;28;20048;-47
2023/03/24 10:16:55;;;;;;;14.23;7.32;;;16.00;99.90;;;;;;5092344;28;20044;-48
2023/03/24 10:19:53;;;;;;;10.70;7.45;;;16.10;99.90;;;;;;5091098;28;20040;-47
2023/03/24 10:22:38;;;;;;;12.18;7.10;;;16.20;99.90;;;;;;5092455;28;20078;-47
2023/03/24 10:25:12;;;;;;;13.20;8.10;;;16.30;99.90;;;;;;5093418;28;20044;-47
2023/03/24 10:27:45;;;;;;;14.32;8.52;;;16.40;99.90;;;;;;5092102;28;20039;-47
2023/03/24 10:30:24;;;;;;;14.70;8.18;;;16.50;99.90;;;;;;5092621;28;20079;-47
2023/03/24 10:32:51;;;;;;;11.63;8.40;;;16.50;99.90;;;;;;5093286;28;20097;-47
2023/03/24 10:35:23;;;;;;;13.80;8.27;;;16.60;99.90;;;;;;5073480;28;20112;-47
2023/03/24 10:37:51;;;;;;;14.52;8.55;;;16.60;99.90;;;;;;5093243;28;20127;-48
2023/03/24 10:40:23;;;;;;;15.65;8.43;;;16.50;99.90;;;;;;5092339;28;20055;-47
2023/03/24 10:42:50;;;;;;;15.32;8.10;;;16.40;99.90;;;;;;5092520;28;20093;-47
2023/03/24 10:45:37;;;;;;;12.48;8.23;;;16.40;99.90;;;;;;5091995;28;20116;-47
2023/03/24 10:48:04;;;;;;;16.92;8.05;;;16.40;99.90;;;;;;5093088;28;20067;-47
2023/03/24 10:50:34;;;;;;;11.90;7.75;;;16.30;99.90;;;;;;5090504;28;20050;-48
2023/03/24 10:53:08;;;;;;;13.02;8.25;;;16.10;99.90;;;;;;5092679;28;20086;-48
2023/03/24 10:55:42;;;;;;;10.68;7.78;;;15.80;99.90;;;;;;5092235;28;20062;-50
2023/03/24 10:58:28;;;;;;;20.02;9.65;;;15.80;99.90;;;;;;5092824;28;20039;-47
2023/03/24 11:00:57;;;;;;;13.82;8.30;;;15.70;99.90;;;;;;5090123;28;20036;-47
2023/03/24 11:03:33;;;;;;;13.10;7.78;;;15.70;99.90;;;;;;5092757;28;20403;-47
2023/03/24 11:06:03;;;;;;;15.48;8.15;;;15.70;99.90;;;;;;5074396;28;20122;-47
2023/03/24 11:08:38;;;;;;;16.58;9.23;;;15.70;99.90;;;;;;5092214;28;20044;-48
2023/03/24 11:11:30;;;;;;;13.48;8.88;;;15.80;99.90;;;;;;5090851;28;20040;-49
2023/03/24 11:14:02;;;;;;;14.27;8.40;;;15.80;99.90;;;;;;5092380;28;20243;-47
2023/03/24 11:16:38;;;;;;;13.10;8.05;;;16.00;99.90;;;;;;5089602;28;20086;-48
2023/03/24 11:19:16;;;;;;;10.88;7.38;;;16.10;99.90;;;;;;5091354;28;20500;-46
2023/03/24 11:21:45;;;;;;;15.77;7.93;;;16.30;99.90;;;;;;5091611;28;20093;-48
2023/03/24 11:24:15;;;;;;;16.23;8.15;;;16.40;99.90;;;;;;5091533;28;20423;-46
2023/03/24 11:26:55;;;;;;;6.00;4.20;;;16.50;99.90;;;;;;5091082;28;20089;-46
2023/03/24 11:29:24;;;;;;;7.70;4.57;;;16.40;99.90;;;;;;5073358;28;20048;-47
2023/03/24 11:32:00;;;;;;;6.05;3.70;;;16.10;99.90;;;;;;5088497;28;20054;-46
2023/03/24 11:34:37;;;;;;;6.55;4.20;;;15.70;99.90;;;;;;5091859;28;20040;-47
2023/03/24 11:37:12;;;;;;;8.13;4.33;;;15.50;99.90;;;;;;5087078;28;20075;-51
2023/03/24 11:39:39;;;;;;;6.90;4.35;;;15.40;99.90;;;;;;5089376;28;20692;-50
2023/03/24 11:42:16;;;;;;;6.22;4.07;;;15.20;99.90;;;;;;5091612;28;20439;-46
2023/03/24 11:44:46;;;;;;;8.10;4.30;;;15.10;99.90;;;;;;5091817;28;20082;-49
2023/03/24 11:47:35;;;;;;;7.57;4.35;;;15.10;99.90;;;;;;5091746;28;20504;-50
2023/03/24 11:50:16;;;;;;;7.93;4.53;;;14.90;99.90;;;;;;5089229;28;20048;-51
2023/03/24 11:53:06;;;;;;;9.00;4.65;;;14.80;99.90;;;;;;5091835;28;20052;-49
2023/03/24 11:55:45;;;;;;;6.53;4.53;;;14.60;99.90;;;;;;5091507;28;20051;-49
2023/03/24 11:58:35;;;;;;;7.05;4.75;;;14.50;99.90;;;;;;5090315;28;20089;-49
2023/03/24 12:01:26;;;;;;;7.13;4.85;;;14.40;99.90;;;;;;5075525;28;20597;-50
2023/03/24 12:04:25;;;;;;;9.52;4.88;;;14.40;99.90;;;;;;5085037;28;20040;-49
2023/03/24 12:07:30;;;;;;;14.80;5.90;;;14.70;99.90;;;;;;5036456;28;20095;-49
2023/03/24 12:10:11;;;;;;;10.23;5.22;;;15.30;99.90;;;;;;5087031;28;20044;-48
2023/03/24 12:13:02;;;;;;;13.15;5.25;;;15.80;99.90;;;;;;5085188;28;20069;-49
2023/03/24 12:15:41;;;;;;;8.40;4.50;;;16.10;99.90;;;;;;5086341;28;20101;-47
2023/03/24 12:18:14;;;;;;;7.70;4.90;;;16.40;99.90;;;;;;5078999;28;20071;-48
2023/03/24 12:21:00;;;;;;;11.45;5.40;;;16.50;99.90;;;;;;5089751;28;20039;-47
2023/03/24 12:23:35;;;;;;;11.10;4.70;;;16.70;99.90;;;;;;5090637;28;20580;-49
2023/03/24 12:26:13;;;;;;;9.45;4.70;;;16.70;99.90;;;;;;5090437;28;20052;-49
2023/03/24 12:29:17;;;;;;;10.00;4.32;;;16.70;99.90;;;;;;5086346;28;20044;-47
2023/03/24 12:32:12;;;;;;;6.32;4.68;;;16.70;99.90;;;;;;5087496;28;20039;-47
2023/03/24 12:34:45;;;;;;;8.15;5.00;;;16.60;99.90;;;;;;5089657;28;20032;-49
2023/03/24 12:37:34;;;;;;;5.68;4.45;;;16.60;99.90;;;;;;5087989;28;20155;-49
2023/03/24 12:40:09;;;;;;;7.13;5.13;;;16.60;99.90;;;;;;5090777;28;20047;-49
2023/03/24 12:42:42;;;;;;;6.00;4.65;;;16.90;99.90;;;;;;5092912;28;20063;-49
2023/03/24 12:45:11;;;;;;;6.20;4.50;;;16.90;99.90;;;;;;5093164;28;20044;-50
2023/03/24 12:47:56;;;;;;;6.82;4.90;;;17.00;99.90;;;;;;5095123;28;20032;-48
2023/03/24 12:50:32;;;;;;;8.85;4.53;;;17.00;99.90;;;;;;5094658;28;20059;-49
2023/03/24 12:53:35;;;;;;;6.82;4.57;;;17.10;99.90;;;;;;5095845;28;20377;-48
2023/03/24 12:56:17;;;;;;;6.93;4.70;;;17.00;99.90;;;;;;5092397;28;20665;-50
2023/03/24 12:59:05;;;;;;;7.85;5.18;;;16.80;99.90;;;;;;5087637;28;20037;-50
2023/03/24 13:01:39;;;;;;;5.43;4.10;;;16.60;99.90;;;;;;5093955;28;20086;-49
2023/03/24 13:04:36;;;;;;;7.22;4.82;;;16.40;99.90;;;;;;5093378;28;20059;-49
2023/03/24 13:07:13;;;;;;;8.75;5.05;;;16.30;99.90;;;;;;5087208;28;20535;-48
2023/03/24 13:09:52;;;;;;;8.48;5.47;;;16.10;99.90;;;;;;5092043;28;20040;-50
2023/03/24 13:12:23;;;;;;;6.78;4.95;;;15.90;99.90;;;;;;5089456;28;20036;-49
2023/03/24 13:15:04;;;;;;;7.72;4.93;;;15.70;99.90;;;;;;5087826;28;20553;-51
2023/03/24 13:17:56;;;;;;;7.60;4.95;;;15.70;99.90;;;;;;5092463;28;20146;-48
2023/03/24 13:20:31;;;;;;;8.95;5.32;;;15.70;99.90;;;;;;5091158;28;20032;-49
2023/03/24 13:23:18;;;;;;;11.27;5.63;;;15.70;99.90;;;;;;5084819;28;20128;-49
2023/03/24 13:25:54;;;;;;;9.15;5.60;;;15.70;99.90;;;;;;5073874;28;20098;-50